createdAt,value
2023-04-16T00:02:22.524Z,7.45
2023-04-16T00:04:50.321Z,7.46
2023-04-16T00:07:17.449Z,7.44
2023-04-16T00:09:45.091Z,7.44
2023-04-16T00:12:12.421Z,7.41
2023-04-16T00:14:40.152Z,7.43
2023-04-16T00:17:07.522Z,7.41
2023-04-16T00:19:35.779Z,7.39
2023-04-16T00:22:02.891Z,7.41
2023-04-16T00:24:30.569Z,7.37
2023-04-16T00:26:58.227Z,7.35
2023-04-16T00:29:28.764Z,7.34
2023-04-16T00:31:56.134Z,7.34
2023-04-16T00:34:24.738Z,7.30
2023-04-16T00:36:52.217Z,7.23
2023-04-16T00:39:19.820Z,7.16
2023-04-16T00:41:47.429Z,7.13
2023-04-16T00:44:15.331Z,7.07
2023-04-16T00:46:43.090Z,7.07
2023-04-16T00:49:11.115Z,7.02
2023-04-16T00:51:38.511Z,7.00
2023-04-16T00:54:06.992Z,7.06
2023-04-16T00:56:35.723Z,6.95
2023-04-16T00:59:03.224Z,6.80
2023-04-16T01:01:30.747Z,6.89
2023-04-16T01:03:58.402Z,6.97
2023-04-16T01:06:28.265Z,6.92
2023-04-16T01:08:56.036Z,6.87
2023-04-16T01:11:23.349Z,6.90
2023-04-16T01:13:51.339Z,6.84
2023-04-16T01:16:19.300Z,6.84
2023-04-16T01:18:47.509Z,6.87
2023-04-16T01:21:14.801Z,6.85
2023-04-16T01:23:42.770Z,6.90
2023-04-16T01:26:10.151Z,6.87
2023-04-16T01:28:37.679Z,6.84
2023-04-16T01:31:05.312Z,6.76
2023-04-16T01:33:46.376Z,6.70
2023-04-16T01:36:13.759Z,6.67
2023-04-16T01:38:41.644Z,6.71
2023-04-16T01:41:08.844Z,6.72
2023-04-16T01:43:38.478Z,6.67
2023-04-16T01:46:24.325Z,6.66
2023-04-16T01:48:54.840Z,6.69
2023-04-16T01:51:22.453Z,6.67
2023-04-16T01:53:51.065Z,6.70
2023-04-16T01:56:18.757Z,6.75
2023-04-16T01:58:47.640Z,6.77
2023-04-16T02:01:17.273Z,6.74
2023-04-16T02:03:46.719Z,6.63
2023-04-16T02:06:15.694Z,6.63
2023-04-16T02:08:43.517Z,6.54
2023-04-16T02:11:11.225Z,6.49
2023-04-16T02:13:39.343Z,6.57
2023-04-16T02:16:07.089Z,6.58
2023-04-16T02:18:44.273Z,6.61
2023-04-16T02:21:14.103Z,6.53
2023-04-16T02:23:42.393Z,6.60
2023-04-16T02:26:10.000Z,6.60
2023-04-16T02:28:38.684Z,6.62
2023-04-16T02:31:08.701Z,6.69
2023-04-16T02:33:41.887Z,6.72
2023-04-16T02:36:11.379Z,6.69
2023-04-16T02:38:39.046Z,6.63
2023-04-16T02:41:07.640Z,6.62
2023-04-16T02:43:35.514Z,6.59
2023-04-16T02:46:03.084Z,6.65
2023-04-16T02:48:30.856Z,6.64
2023-04-16T02:50:58.388Z,6.62
2023-04-16T02:53:26.034Z,6.59
2023-04-16T02:55:54.473Z,6.60
2023-04-16T02:58:24.177Z,6.56
2023-04-16T03:00:52.692Z,6.60
2023-04-16T03:03:21.539Z,6.61
2023-04-16T03:05:49.033Z,6.57
2023-04-16T03:08:17.312Z,6.60
2023-04-16T03:10:44.744Z,6.55
2023-04-16T03:13:12.618Z,6.57
2023-04-16T03:15:40.151Z,6.60
2023-04-16T03:18:07.814Z,6.64
2023-04-16T03:20:34.932Z,6.56
2023-04-16T03:23:02.555Z,6.64
2023-04-16T03:25:29.863Z,6.70
2023-04-16T03:27:57.761Z,6.65
2023-04-16T03:30:25.520Z,6.61
2023-04-16T03:32:53.286Z,6.63
2023-04-16T03:35:21.495Z,6.67
2023-04-16T03:37:50.452Z,6.71
2023-04-16T03:40:18.417Z,6.68
2023-04-16T03:42:46.371Z,6.73
2023-04-16T03:45:13.777Z,6.83
2023-04-16T03:47:42.246Z,6.84
2023-04-16T03:50:11.713Z,6.84
2023-04-16T03:52:40.134Z,6.85
2023-04-16T03:55:08.008Z,6.86
2023-04-16T03:57:35.773Z,6.83
2023-04-16T04:00:09.691Z,6.84
2023-04-16T04:02:54.476Z,6.87
2023-04-16T04:05:23.030Z,6.89
2023-04-16T04:07:51.117Z,6.89
2023-04-16T04:10:18.513Z,6.92
2023-04-16T04:12:46.820Z,6.94
2023-04-16T04:15:14.395Z,6.88
2023-04-16T04:17:43.695Z,6.88
2023-04-16T04:20:11.840Z,6.81
2023-04-16T04:22:39.728Z,6.92
2023-04-16T04:25:08.793Z,6.90
2023-04-16T04:27:36.683Z,6.94
2023-04-16T04:30:07.443Z,6.81
2023-04-16T04:32:38.194Z,6.93
2023-04-16T04:35:05.985Z,6.95
2023-04-16T04:37:33.819Z,6.98
2023-04-16T04:40:08.958Z,6.99
2023-04-16T04:42:37.968Z,6.97
2023-04-16T04:45:06.192Z,7.04
2023-04-16T04:47:35.107Z,7.05
2023-04-16T04:50:02.444Z,7.05
2023-04-16T04:52:31.659Z,7.06
2023-04-16T04:54:59.244Z,7.11
2023-04-16T04:57:27.286Z,7.11
2023-04-16T04:59:55.363Z,7.14
2023-04-16T05:02:23.481Z,7.14
2023-04-16T05:04:50.986Z,7.17
2023-04-16T05:07:18.694Z,7.16
2023-04-16T05:09:45.902Z,7.17
2023-04-16T05:12:13.561Z,7.12
2023-04-16T05:14:40.970Z,7.21
2023-04-16T05:17:08.592Z,7.27
2023-04-16T05:19:35.904Z,7.20
2023-04-16T05:22:03.511Z,7.30
2023-04-16T05:24:30.977Z,7.37
2023-04-16T05:26:58.518Z,7.35
2023-04-16T05:29:26.166Z,7.36
2023-04-16T05:31:53.776Z,7.48
2023-04-16T05:34:21.113Z,7.45
2023-04-16T05:36:48.606Z,7.53
2023-04-16T05:39:16.995Z,7.56
2023-04-16T05:41:44.504Z,7.59
2023-04-16T05:44:11.757Z,7.63
2023-04-16T05:46:39.390Z,7.54
2023-04-16T05:49:06.911Z,7.53
2023-04-16T05:51:34.731Z,7.40
2023-04-16T05:54:01.990Z,7.51
2023-04-16T05:56:29.669Z,7.45
2023-04-16T05:58:57.009Z,7.53
2023-04-16T06:01:25.625Z,7.48
2023-04-16T06:03:52.868Z,7.57
2023-04-16T06:06:20.411Z,7.59
2023-04-16T06:08:47.727Z,7.59
2023-04-16T06:11:15.752Z,7.62
2023-04-16T06:13:43.308Z,7.67
2023-04-16T06:16:10.908Z,7.71
2023-04-16T06:18:38.136Z,7.68
2023-04-16T06:21:05.901Z,7.75
2023-04-16T06:23:33.238Z,7.83
2023-04-16T06:26:00.912Z,7.92
2023-04-16T06:28:28.121Z,7.88
2023-04-16T06:30:56.029Z,7.89
2023-04-16T06:33:23.493Z,7.91
2023-04-16T06:35:50.951Z,7.91
2023-04-16T06:38:18.837Z,7.94
2023-04-16T06:40:46.474Z,7.77
2023-04-16T06:43:15.768Z,7.90
2023-04-16T06:45:43.594Z,7.94
2023-04-16T06:48:10.849Z,8.00
2023-04-16T06:50:38.778Z,7.91
2023-04-16T06:53:07.264Z,7.88
2023-04-16T06:55:34.949Z,7.96
2023-04-16T06:58:02.300Z,7.94
2023-04-16T07:00:29.989Z,7.88
2023-04-16T07:02:58.709Z,7.89
2023-04-16T07:05:26.438Z,7.84
2023-04-16T07:07:53.656Z,7.95
2023-04-16T07:10:21.444Z,7.93
2023-04-16T07:12:48.770Z,7.91
2023-04-16T07:15:16.404Z,7.88
2023-04-16T07:17:43.681Z,7.85
2023-04-16T07:20:11.485Z,7.84
2023-04-16T07:22:38.791Z,7.83
2023-04-16T07:25:06.612Z,8.04
2023-04-16T07:27:33.975Z,7.99
2023-04-16T07:30:01.868Z,8.02
2023-04-16T07:32:29.230Z,8.00
2023-04-16T07:34:57.248Z,8.07
2023-04-16T07:37:24.411Z,8.05
2023-04-16T07:39:53.135Z,8.14
2023-04-16T07:42:20.915Z,8.22
2023-04-16T07:44:48.367Z,8.16
2023-04-16T07:47:15.587Z,8.13
2023-04-16T07:49:43.236Z,8.07
2023-04-16T07:52:10.722Z,7.98
2023-04-16T07:54:38.093Z,8.05
2023-04-16T07:57:05.212Z,8.12
2023-04-16T07:59:32.738Z,8.08
2023-04-16T08:02:00.398Z,8.13
2023-04-16T08:04:28.724Z,8.22
2023-04-16T08:06:56.392Z,8.23
2023-04-16T08:09:27.573Z,8.19
2023-04-16T08:11:54.930Z,8.11
2023-04-16T08:14:22.848Z,8.17
2023-04-16T08:16:50.348Z,8.16
2023-04-16T08:19:18.028Z,8.20
2023-04-16T08:21:45.782Z,8.18
2023-04-16T08:24:13.939Z,8.17
2023-04-16T08:26:41.763Z,8.13
2023-04-16T08:29:09.754Z,8.22
2023-04-16T08:31:37.836Z,8.28
2023-04-16T08:34:05.649Z,8.37
2023-04-16T08:36:32.918Z,8.27
2023-04-16T08:39:00.653Z,8.30
2023-04-16T08:41:29.950Z,8.35
2023-04-16T08:44:10.382Z,8.37
2023-04-16T08:46:38.679Z,8.39
2023-04-16T08:49:08.166Z,8.54
2023-04-16T08:51:36.316Z,8.56
2023-04-16T08:54:06.025Z,8.57
2023-04-16T08:56:36.719Z,8.61
2023-04-16T08:59:05.833Z,8.74
2023-04-16T09:01:34.309Z,8.81
2023-04-16T09:04:03.686Z,8.89
2023-04-16T09:06:31.721Z,8.92
2023-04-16T09:09:00.142Z,8.92
2023-04-16T09:11:27.748Z,9.08
2023-04-16T09:13:55.778Z,9.15
2023-04-16T09:16:23.692Z,9.21
2023-04-16T09:18:52.414Z,9.23
2023-04-16T09:21:22.009Z,9.32
2023-04-16T09:23:53.644Z,9.29
2023-04-16T09:26:22.061Z,9.35
2023-04-16T09:28:51.643Z,9.45
2023-04-16T09:31:20.068Z,9.57
2023-04-16T09:34:08.766Z,9.63
2023-04-16T09:36:37.011Z,9.81
2023-04-16T09:39:04.956Z,9.73
2023-04-16T09:41:36.231Z,9.73
2023-04-16T09:44:05.419Z,9.77
2023-04-16T09:46:37.635Z,9.80
2023-04-16T09:49:18.812Z,9.88
2023-04-16T09:51:48.227Z,9.97
2023-04-16T09:54:16.440Z,9.96
2023-04-16T09:56:45.313Z,10.22
2023-04-16T09:59:22.921Z,10.09
2023-04-16T10:01:50.789Z,10.07
2023-04-16T10:04:18.918Z,9.95
2023-04-16T10:07:05.614Z,9.96
2023-04-16T10:09:37.961Z,10.02
2023-04-16T10:12:06.963Z,10.22
2023-04-16T10:14:35.192Z,10.23
2023-04-16T10:17:03.839Z,10.34
2023-04-16T10:19:32.498Z,10.39
2023-04-16T10:22:00.176Z,10.61
2023-04-16T10:24:29.741Z,10.56
2023-04-16T10:26:57.830Z,10.56
2023-04-16T10:29:30.420Z,10.60
2023-04-16T10:31:58.326Z,10.61
2023-04-16T10:34:27.023Z,10.61
2023-04-16T10:36:55.098Z,10.51
2023-04-16T10:39:24.947Z,10.69
2023-04-16T10:42:07.727Z,10.69
2023-04-16T10:44:35.653Z,10.62
2023-04-16T10:47:03.361Z,10.59
2023-04-16T10:49:31.752Z,10.59
2023-04-16T10:52:19.320Z,10.69
2023-04-16T10:54:48.519Z,10.52
2023-04-16T10:57:18.059Z,10.53
2023-04-16T10:59:46.405Z,10.73
2023-04-16T11:02:15.570Z,10.76
2023-04-16T11:04:47.757Z,10.79
2023-04-16T11:07:20.758Z,10.83
2023-04-16T11:10:00.184Z,10.83
2023-04-16T11:12:38.747Z,10.84
2023-04-16T11:15:08.576Z,11.11
2023-04-16T11:17:44.726Z,11.07
2023-04-16T11:20:19.916Z,11.12
2023-04-16T11:22:51.926Z,11.12
2023-04-16T11:25:21.973Z,11.07
2023-04-16T11:27:50.315Z,11.08
2023-04-16T11:30:19.091Z,11.36
2023-04-16T11:32:46.481Z,11.56
2023-04-16T11:35:19.267Z,11.80
2023-04-16T11:37:48.507Z,11.77
2023-04-16T11:40:16.234Z,11.81
2023-04-16T11:42:44.552Z,11.77
2023-04-16T11:45:12.826Z,11.64
2023-04-16T11:47:59.319Z,11.74
2023-04-16T11:50:28.759Z,11.64
2023-04-16T11:52:58.032Z,11.54
2023-04-16T11:55:25.851Z,11.50
2023-04-16T11:57:53.824Z,11.69
2023-04-16T12:00:24.537Z,11.67
2023-04-16T12:02:54.955Z,11.58
2023-04-16T12:05:31.237Z,11.49
2023-04-16T12:07:59.981Z,11.42
2023-04-16T12:10:28.731Z,11.37
2023-04-16T12:13:17.397Z,11.22
2023-04-16T12:15:50.337Z,11.23
2023-04-16T12:18:20.450Z,11.22
2023-04-16T12:20:49.215Z,10.96
2023-04-16T12:23:26.887Z,11.15
2023-04-16T12:25:55.766Z,11.24
2023-04-16T12:28:31.849Z,11.49
2023-04-16T12:31:00.781Z,11.48
2023-04-16T12:33:29.418Z,11.50
2023-04-16T12:35:58.282Z,11.48
2023-04-16T12:38:27.532Z,11.69
2023-04-16T12:40:57.471Z,11.77
2023-04-16T12:43:26.109Z,11.79
2023-04-16T12:45:54.532Z,11.86
2023-04-16T12:48:22.248Z,11.97
2023-04-16T12:50:50.014Z,12.18
2023-04-16T12:53:17.273Z,12.24
2023-04-16T12:55:45.631Z,12.38
2023-04-16T12:58:12.917Z,12.73
2023-04-16T13:00:40.904Z,12.81
2023-04-16T13:03:08.548Z,12.83
2023-04-16T13:05:36.269Z,12.67
2023-04-16T13:08:03.681Z,12.79
2023-04-16T13:10:31.236Z,12.61
2023-04-16T13:12:58.470Z,12.66
2023-04-16T13:15:26.076Z,12.63
2023-04-16T13:17:53.381Z,12.44
2023-04-16T13:20:23.144Z,12.26
2023-04-16T13:22:51.871Z,12.13
2023-04-16T13:25:19.479Z,11.99
2023-04-16T13:27:46.782Z,12.10
2023-04-16T13:30:14.565Z,12.23
2023-04-16T13:32:42.115Z,12.19
2023-04-16T13:35:10.956Z,12.33
2023-04-16T13:37:38.266Z,12.46
2023-04-16T13:40:06.954Z,12.47
2023-04-16T13:42:34.251Z,12.53
2023-04-16T13:45:02.556Z,12.68
2023-04-16T13:47:30.325Z,12.66
2023-04-16T13:49:58.405Z,12.70
2023-04-16T13:52:25.901Z,12.85
2023-04-16T13:54:53.555Z,12.95
2023-04-16T13:57:21.167Z,13.06
2023-04-16T13:59:48.958Z,13.20
2023-04-16T14:02:16.640Z,13.27
2023-04-16T14:04:44.446Z,13.46
2023-04-16T14:07:12.065Z,13.62
2023-04-16T14:09:39.582Z,13.58
2023-04-16T14:12:07.212Z,13.64
2023-04-16T14:14:35.399Z,13.51
2023-04-16T14:17:03.602Z,13.36
2023-04-16T14:19:31.509Z,13.16
2023-04-16T14:21:58.898Z,13.11
2023-04-16T14:24:26.879Z,12.89
2023-04-16T14:26:54.512Z,12.72
2023-04-16T14:29:22.272Z,12.69
2023-04-16T14:31:50.516Z,12.69
2023-04-16T14:34:18.223Z,12.61
2023-04-16T14:36:45.560Z,12.57
2023-04-16T14:39:13.314Z,12.55
2023-04-16T14:41:40.667Z,12.50
2023-04-16T14:44:08.485Z,12.40
2023-04-16T14:46:36.350Z,12.37
2023-04-16T14:49:05.049Z,12.31
2023-04-16T14:51:32.716Z,12.31
2023-04-16T14:54:00.462Z,12.29
2023-04-16T14:56:27.773Z,12.24
2023-04-16T14:58:55.325Z,12.44
2023-04-16T15:01:22.748Z,12.54
2023-04-16T15:03:50.879Z,12.60
2023-04-16T15:06:19.038Z,12.74
2023-04-16T15:08:46.673Z,12.84
2023-04-16T15:11:14.296Z,12.80
2023-04-16T15:13:42.163Z,12.76
2023-04-16T15:16:09.614Z,12.78
2023-04-16T15:18:37.349Z,12.76
2023-04-16T15:21:04.944Z,12.74
2023-04-16T15:23:32.794Z,12.78
2023-04-16T15:26:00.133Z,12.57
2023-04-16T15:28:28.287Z,12.53
2023-04-16T15:30:56.071Z,12.47
2023-04-16T15:33:24.043Z,12.58
2023-04-16T15:35:51.795Z,12.65
2023-04-16T15:38:21.566Z,12.49
2023-04-16T15:40:49.021Z,12.48
2023-04-16T15:43:16.908Z,12.42
2023-04-16T15:45:44.340Z,12.44
2023-04-16T15:48:12.056Z,12.24
2023-04-16T15:50:39.826Z,12.07
2023-04-16T15:53:07.408Z,12.03
2023-04-16T15:55:35.877Z,12.08
2023-04-16T15:58:03.646Z,11.91
2023-04-16T16:00:31.279Z,11.83
2023-04-16T16:02:58.925Z,11.82
2023-04-16T16:05:26.458Z,11.71
2023-04-16T16:07:54.197Z,11.66
2023-04-16T16:10:21.693Z,11.58
2023-04-16T16:12:49.611Z,11.45
2023-04-16T16:15:17.613Z,11.40
2023-04-16T16:17:45.347Z,11.40
2023-04-16T16:20:13.103Z,11.42
2023-04-16T16:22:42.071Z,11.45
2023-04-16T16:25:10.488Z,11.49
2023-04-16T16:27:38.166Z,11.54
2023-04-16T16:30:07.474Z,11.53
2023-04-16T16:32:35.276Z,11.54
2023-04-16T16:35:02.692Z,11.52
2023-04-16T16:37:30.510Z,11.38
2023-04-16T16:39:57.849Z,11.41
2023-04-16T16:42:26.712Z,11.38
2023-04-16T16:44:56.022Z,11.31
2023-04-16T16:47:25.424Z,11.28
2023-04-16T16:49:54.884Z,11.27
2023-04-16T16:52:24.143Z,11.20
2023-04-16T16:54:53.255Z,11.16
2023-04-16T16:57:20.814Z,11.07
2023-04-16T16:59:48.664Z,11.06
2023-04-16T17:02:17.149Z,11.01
2023-04-16T17:04:45.151Z,10.89
2023-04-16T17:07:12.916Z,10.81
2023-04-16T17:09:40.629Z,10.77
2023-04-16T17:12:08.399Z,10.71
2023-04-16T17:14:36.113Z,10.67
2023-04-16T17:17:04.126Z,10.62
2023-04-16T17:19:31.495Z,10.59
2023-04-16T17:22:00.297Z,10.48
2023-04-16T17:24:27.548Z,10.48
2023-04-16T17:26:55.261Z,10.39
2023-04-16T17:29:26.345Z,10.33
2023-04-16T17:31:54.224Z,10.33
2023-04-16T17:34:22.116Z,10.29
2023-04-16T17:36:52.864Z,10.25
2023-04-16T17:39:21.200Z,10.10
2023-04-16T17:41:54.401Z,10.12
2023-04-16T17:44:23.303Z,10.08
2023-04-16T17:46:51.558Z,10.02
2023-04-16T17:49:19.326Z,9.98
2023-04-16T17:51:47.029Z,9.93
2023-04-16T17:54:14.792Z,9.89
2023-04-16T17:56:42.748Z,9.83
2023-04-16T17:59:10.244Z,9.77
2023-04-16T18:01:38.962Z,9.73
2023-04-16T18:04:07.214Z,9.64
2023-04-16T18:06:35.071Z,9.63
2023-04-16T18:09:05.047Z,9.61
2023-04-16T18:11:32.842Z,9.61
2023-04-16T18:14:01.024Z,9.57
2023-04-16T18:16:29.005Z,9.53
2023-04-16T18:18:57.019Z,9.48
2023-04-16T18:21:25.080Z,9.47
2023-04-16T18:23:52.479Z,9.42
2023-04-16T18:26:22.194Z,9.42
2023-04-16T18:28:51.510Z,9.32
2023-04-16T18:31:21.352Z,9.34
2023-04-16T18:33:57.606Z,9.29
2023-04-16T18:36:27.101Z,9.21
2023-04-16T18:39:15.766Z,9.18
2023-04-16T18:41:47.996Z,9.09
2023-04-16T18:44:17.883Z,9.07
2023-04-16T18:46:46.345Z,9.00
2023-04-16T18:49:14.108Z,8.89
2023-04-16T18:51:42.547Z,8.88
2023-04-16T18:54:10.310Z,8.85
2023-04-16T18:56:38.019Z,8.79
2023-04-16T18:59:05.632Z,8.74
2023-04-16T19:01:33.710Z,8.70
2023-04-16T19:04:01.806Z,8.67
2023-04-16T19:06:30.383Z,8.58
2023-04-16T19:08:57.770Z,8.53
2023-04-16T19:11:25.718Z,8.48
2023-04-16T19:13:53.089Z,8.46
2023-04-16T19:16:21.116Z,8.37
2023-04-16T19:18:48.716Z,8.35
2023-04-16T19:21:16.512Z,8.31
2023-04-16T19:23:43.822Z,8.27
2023-04-16T19:26:11.835Z,8.20
2023-04-16T19:28:39.851Z,8.14
2023-04-16T19:31:07.783Z,8.16
2023-04-16T19:33:35.908Z,8.16
2023-04-16T19:36:03.918Z,8.11
2023-04-16T19:38:34.026Z,8.06
2023-04-16T19:41:01.878Z,7.99
2023-04-16T19:43:31.133Z,7.95
2023-04-16T19:45:59.346Z,7.88
2023-04-16T19:48:27.319Z,7.83
2023-04-16T19:50:55.063Z,7.80
2023-04-16T19:53:22.887Z,7.71
2023-04-16T19:55:50.711Z,7.63
2023-04-16T19:58:17.994Z,7.62
2023-04-16T20:00:45.728Z,7.60
2023-04-16T20:03:13.357Z,7.54
2023-04-16T20:05:41.126Z,7.50
2023-04-16T20:08:08.897Z,7.46
2023-04-16T20:10:37.037Z,7.44
2023-04-16T20:13:06.698Z,7.36
2023-04-16T20:15:34.249Z,7.26
2023-04-16T20:18:01.831Z,7.18
2023-04-16T20:20:29.843Z,7.22
2023-04-16T20:22:57.413Z,7.20
2023-04-16T20:25:26.452Z,7.18
2023-04-16T20:27:54.634Z,7.12
2023-04-16T20:30:24.847Z,7.09
2023-04-16T20:32:52.189Z,7.09
2023-04-16T20:35:19.895Z,7.06
2023-04-16T20:37:47.414Z,7.07
2023-04-16T20:40:16.593Z,7.05
2023-04-16T20:42:46.475Z,7.04
2023-04-16T20:45:14.466Z,7.07
2023-04-16T20:47:43.741Z,7.08
2023-04-16T20:50:12.407Z,7.14
2023-04-16T20:52:39.749Z,7.14
2023-04-16T20:55:08.270Z,7.14
2023-04-16T20:57:35.624Z,7.07
2023-04-16T21:00:06.091Z,7.14
2023-04-16T21:02:33.871Z,7.05
2023-04-16T21:05:02.106Z,7.08
2023-04-16T21:07:29.574Z,7.09
2023-04-16T21:09:57.514Z,7.14
2023-04-16T21:12:24.857Z,7.14
2023-04-16T21:14:52.681Z,7.17
2023-04-16T21:17:20.077Z,7.19
2023-04-16T21:19:47.796Z,7.17
2023-04-16T21:22:15.587Z,7.21
2023-04-16T21:24:43.228Z,7.25
2023-04-16T21:27:10.639Z,7.29
2023-04-16T21:29:38.330Z,7.31
2023-04-16T21:32:05.985Z,7.32
2023-04-16T21:34:33.789Z,7.37
2023-04-16T21:37:01.157Z,7.39
2023-04-16T21:39:31.138Z,7.41
2023-04-16T21:41:58.378Z,7.46
2023-04-16T21:44:26.049Z,7.49
2023-04-16T21:46:53.625Z,7.45
2023-04-16T21:49:21.535Z,7.51
2023-04-16T21:51:50.416Z,7.57
2023-04-16T21:54:18.891Z,7.59
2023-04-16T21:56:46.440Z,7.61
2023-04-16T21:59:14.131Z,7.67
2023-04-16T22:01:41.789Z,7.69
2023-04-16T22:04:10.182Z,7.68
2023-04-16T22:06:37.771Z,7.69
2023-04-16T22:09:05.608Z,7.75
2023-04-16T22:11:32.838Z,7.78
2023-04-16T22:14:00.566Z,7.76
2023-04-16T22:16:27.908Z,7.78
2023-04-16T22:18:56.824Z,7.79
2023-04-16T22:21:25.294Z,7.76
2023-04-16T22:23:53.035Z,7.79
2023-04-16T22:26:20.782Z,7.80
2023-04-16T22:28:48.757Z,7.78
2023-04-16T22:31:16.148Z,7.80
2023-04-16T22:33:43.756Z,7.84
2023-04-16T22:36:11.238Z,7.77
2023-04-16T22:38:39.108Z,7.75
2023-04-16T22:41:06.680Z,7.65
2023-04-16T22:43:37.556Z,7.63
2023-04-16T22:46:06.829Z,7.53
2023-04-16T22:48:36.581Z,7.52
2023-04-16T22:51:07.794Z,7.48
2023-04-16T22:53:36.218Z,7.40
2023-04-16T22:56:04.327Z,7.37
2023-04-16T22:58:32.005Z,7.43
2023-04-16T23:00:59.781Z,7.36
2023-04-16T23:03:27.901Z,7.43
2023-04-16T23:05:55.371Z,7.41
2023-04-16T23:08:22.911Z,7.34
2023-04-16T23:10:50.653Z,7.36
2023-04-16T23:13:18.456Z,7.28
2023-04-16T23:15:47.549Z,7.31
2023-04-16T23:18:15.554Z,7.34
2023-04-16T23:20:43.007Z,7.39
2023-04-16T23:23:10.750Z,7.37
2023-04-16T23:25:38.112Z,7.36
2023-04-16T23:28:05.780Z,7.39
2023-04-16T23:30:33.184Z,7.42
2023-04-16T23:33:00.759Z,7.33
2023-04-16T23:35:28.110Z,7.30
2023-04-16T23:37:56.081Z,7.32
2023-04-16T23:40:23.313Z,7.43
2023-04-16T23:42:51.290Z,7.36
2023-04-16T23:45:18.669Z,7.43
2023-04-16T23:47:47.170Z,7.39
2023-04-16T23:50:14.710Z,7.39
2023-04-16T23:52:42.386Z,7.37
2023-04-16T23:55:09.857Z,7.37
2023-04-16T23:57:37.845Z,7.39
